sensor_id;sensor_type;location;lat;lon;timestamp;pressure;altitude;pressure_sealevel;temperature;humidity
38718;BME280;24468;52.128;9.278;2022-10-19T00:02:05;101933.06;;;8.97;100.00
38718;BME280;24468;52.128;9.278;2022-10-19T00:04:31;101929.44;;;9.00;100.00
38718;BME280;24468;52.128;9.278;2022-10-19T00:06:56;101934.88;;;8.94;100.00
38718;BME280;24468;52.128;9.278;2022-10-19T00:09:22;101944.81;;;8.92;100.00
38718;BME280;24468;52.128;9.278;2022-10-19T00:11:49;101949.47;;;8.79;100.00
38718;BME280;24468;52.128;9.278;2022-10-19T00:14:22;101935.03;;;8.86;100.00
38718;BME280;24468;52.128;9.278;2022-10-19T00:16:50;101934.94;;;8.90;100.00
38718;BME280;24468;52.128;9.278;2022-10-19T00:19:21;101925.06;;;8.91;100.00
38718;BME280;24468;52.128;9.278;2022-10-19T00:21:47;101925.25;;;8.79;100.00
38718;BME280;24468;52.128;9.278;2022-10-19T00:24:13;101923.59;;;8.68;100.00
38718;BME280;24468;52.128;9.278;2022-10-19T00:26:38;101925.69;;;8.46;100.00
38718;BME280;24468;52.128;9.278;2022-10-19T00:29:06;101929.22;;;8.52;100.00
38718;BME280;24468;52.128;9.278;2022-10-19T00:31:32;101924.00;;;8.41;100.00
38718;BME280;24468;52.128;9.278;2022-10-19T00:33:59;101925.75;;;8.43;100.00
38718;BME280;24468;52.128;9.278;2022-10-19T00:36:33;101933.81;;;8.43;100.00
38718;BME280;24468;52.128;9.278;2022-10-19T00:39:00;101927.56;;;8.43;100.00
38718;BME280;24468;52.128;9.278;2022-10-19T00:41:30;101934.75;;;8.41;100.00
38718;BME280;24468;52.128;9.278;2022-10-19T00:44:06;101941.00;;;8.38;100.00
38718;BME280;24468;52.128;9.278;2022-10-19T00:46:35;101951.06;;;8.24;100.00
38718;BME280;24468;52.128;9.278;2022-10-19T00:49:15;101944.97;;;8.08;100.00
38718;BME280;24468;52.128;9.278;2022-10-19T00:51:46;101944.88;;;8.17;100.00
38718;BME280;24468;52.128;9.278;2022-10-19T00:54:13;101952.00;;;8.20;100.00
38718;BME280;24468;52.128;9.278;2022-10-19T00:56:41;101951.06;;;8.22;100.00
38718;BME280;24468;52.128;9.278;2022-10-19T00:59:08;101951.28;;;8.06;100.00
38718;BME280;24468;52.128;9.278;2022-10-19T01:04:10;101941.63;;;7.88;100.00
38718;BME280;24468;52.128;9.278;2022-10-19T01:06:37;101934.19;;;8.13;100.00
38718;BME280;24468;52.128;9.278;2022-10-19T01:09:05;101935.91;;;8.17;100.00
38718;BME280;24468;52.128;9.278;2022-10-19T01:11:51;101943.28;;;7.98;100.00
38718;BME280;24468;52.128;9.278;2022-10-19T01:25:54;101958.75;;;7.76;100.00
38718;BME280;24468;52.128;9.278;2022-10-19T01:28:57;101954.22;;;7.81;100.00
38718;BME280;24468;52.128;9.278;2022-10-19T01:31:36;101952.31;;;7.94;100.00
38718;BME280;24468;52.128;9.278;2022-10-19T01:34:25;101948.63;;;8.02;100.00
38718;BME280;24468;52.128;9.278;2022-10-19T01:37:11;101945.84;;;8.10;100.00
38718;BME280;24468;52.128;9.278;2022-10-19T01:39:53;101945.72;;;8.19;100.00
38718;BME280;24468;52.128;9.278;2022-10-19T01:44:56;101954.03;;;7.99;100.00
38718;BME280;24468;52.128;9.278;2022-10-19T01:47:40;101947.84;;;7.93;100.00
38718;BME280;24468;52.128;9.278;2022-10-19T01:50:23;101952.34;;;7.89;100.00
38718;BME280;24468;52.128;9.278;2022-10-19T01:52:50;101947.81;;;7.96;100.00
38718;BME280;24468;52.128;9.278;2022-10-19T01:55:18;101944.13;;;8.03;100.00
38718;BME280;24468;52.128;9.278;2022-10-19T01:57:50;101948.53;;;8.09;100.00
38718;BME280;24468;52.128;9.278;2022-10-19T02:00:16;101949.50;;;8.05;100.00
38718;BME280;24468;52.128;9.278;2022-10-19T02:02:46;101946.84;;;8.01;100.00
38718;BME280;24468;52.128;9.278;2022-10-19T02:05:14;101942.38;;;8.02;100.00
38718;BME280;24468;52.128;9.278;2022-10-19T02:07:45;101945.88;;;8.07;100.00
38718;BME280;24468;52.128;9.278;2022-10-19T02:10:13;101948.53;;;8.09;100.00
38718;BME280;24468;52.128;9.278;2022-10-19T02:12:39;101946.94;;;7.92;100.00
38718;BME280;24468;52.128;9.278;2022-10-19T02:15:12;101945.16;;;7.93;100.00
38718;BME280;24468;52.128;9.278;2022-10-19T02:17:45;101946.78;;;8.08;100.00
38718;BME280;24468;52.128;9.278;2022-10-19T02:20:13;101945.03;;;8.02;100.00
38718;BME280;24468;52.128;9.278;2022-10-19T02:22:39;101949.66;;;7.89;100.00
38718;BME280;24468;52.128;9.278;2022-10-19T02:25:06;101952.19;;;8.05;100.00
38718;BME280;24468;52.128;9.278;2022-10-19T02:27:33;101943.09;;;8.18;100.00
38718;BME280;24468;52.128;9.278;2022-10-19T02:29:59;101942.19;;;8.16;100.00
38718;BME280;24468;52.128;9.278;2022-10-19T02:32:26;101939.38;;;8.27;100.00
38718;BME280;24468;52.128;9.278;2022-10-19T02:34:52;101936.06;;;8.03;100.00
38718;BME280;24468;52.128;9.278;2022-10-19T02:37:17;101943.59;;;7.72;100.00
38718;BME280;24468;52.128;9.278;2022-10-19T02:39:43;101935.19;;;8.02;100.00
38718;BME280;24468;52.128;9.278;2022-10-19T02:42:13;101939.56;;;8.13;100.00
38718;BME280;24468;52.128;9.278;2022-10-19T02:44:55;101946.72;;;8.11;100.00
38718;BME280;24468;52.128;9.278;2022-10-19T02:47:30;101937.44;;;8.36;100.00
38718;BME280;24468;52.128;9.278;2022-10-19T02:49:58;101938.22;;;8.51;100.00
38718;BME280;24468;52.128;9.278;2022-10-19T02:52:23;101948.09;;;8.50;100.00
38718;BME280;24468;52.128;9.278;2022-10-19T02:54:49;101947.56;;;8.17;100.00
38718;BME280;24468;52.128;9.278;2022-10-19T02:57:19;101945.22;;;8.62;100.00
38718;BME280;24468;52.128;9.278;2022-10-19T02:59:46;101955.25;;;8.50;100.00
38718;BME280;24468;52.128;9.278;2022-10-19T03:02:13;101961.50;;;8.52;100.00
38718;BME280;24468;52.128;9.278;2022-10-19T03:04:39;101953.94;;;8.80;100.00
38718;BME280;24468;52.128;9.278;2022-10-19T03:07:07;101955.25;;;8.50;100.00
38718;BME280;24468;52.128;9.278;2022-10-19T03:09:33;101949.63;;;8.68;100.00
38718;BME280;24468;52.128;9.278;2022-10-19T03:11:58;101945.94;;;8.75;100.00
38718;BME280;24468;52.128;9.278;2022-10-19T03:14:24;101957.50;;;8.83;100.00
38718;BME280;24468;52.128;9.278;2022-10-19T03:16:49;101951.97;;;8.91;100.00
38718;BME280;24468;52.128;9.278;2022-10-19T03:19:15;101952.78;;;8.96;100.00
38718;BME280;24468;52.128;9.278;2022-10-19T03:21:40;101951.63;;;8.54;100.00
38718;BME280;24468;52.128;9.278;2022-10-19T03:24:06;101960.38;;;8.70;100.00
38718;BME280;24468;52.128;9.278;2022-10-19T03:26:31;101952.91;;;8.88;100.00
38718;BME280;24468;52.128;9.278;2022-10-19T03:28:57;101942.84;;;9.01;100.00
38718;BME280;24468;52.128;9.278;2022-10-19T03:31:22;101947.25;;;9.07;100.00
38718;BME280;24468;52.128;9.278;2022-10-19T03:33:48;101950.97;;;8.98;100.00
38718;BME280;24468;52.128;9.278;2022-10-19T03:36:25;101951.84;;;9.00;100.00
38718;BME280;24468;52.128;9.278;2022-10-19T03:38:56;101951.63;;;9.12;100.00
38718;BME280;24468;52.128;9.278;2022-10-19T03:41:24;101946.41;;;9.03;100.00
38718;BME280;24468;52.128;9.278;2022-10-19T03:43:50;101947.94;;;9.20;100.00
38718;BME280;24468;52.128;9.278;2022-10-19T03:46:16;101947.34;;;9.01;100.00
38718;BME280;24468;52.128;9.278;2022-10-19T03:48:42;101956.91;;;9.20;100.00
38718;BME280;24468;52.128;9.278;2022-10-19T03:51:15;101953.22;;;9.26;100.00
38718;BME280;24468;52.128;9.278;2022-10-19T03:53:41;101947.78;;;9.30;100.00
38718;BME280;24468;52.128;9.278;2022-10-19T03:58:39;101963.81;;;9.37;100.00
38718;BME280;24468;52.128;9.278;2022-10-19T04:01:23;101960.34;;;9.30;100.00
38718;BME280;24468;52.128;9.278;2022-10-19T04:03:56;101953.28;;;9.24;100.00
38718;BME280;24468;52.128;9.278;2022-10-19T04:06:27;101960.59;;;9.15;100.00
38718;BME280;24468;52.128;9.278;2022-10-19T04:08:53;101963.56;;;8.96;100.00
38718;BME280;24468;52.128;9.278;2022-10-19T04:11:23;101964.28;;;9.09;100.00
38718;BME280;24468;52.128;9.278;2022-10-19T04:13:50;101958.72;;;9.18;100.00
38718;BME280;24468;52.128;9.278;2022-10-19T04:16:17;101956.91;;;9.19;100.00
38718;BME280;24468;52.128;9.278;2022-10-19T04:18:43;101956.66;;;9.35;100.00
38718;BME280;24468;52.128;9.278;2022-10-19T04:21:27;101948.72;;;9.26;100.00
38718;BME280;24468;52.128;9.278;2022-10-19T04:24:02;101940.34;;;9.45;100.00
38718;BME280;24468;52.128;9.278;2022-10-19T04:26:28;101932.09;;;9.54;100.00
38718;BME280;24468;52.128;9.278;2022-10-19T04:28:57;101937.53;;;9.52;100.00
38718;BME280;24468;52.128;9.278;2022-10-19T04:31:23;101938.66;;;9.39;100.00
38718;BME280;24468;52.128;9.278;2022-10-19T04:33:48;101946.03;;;9.26;100.00
38718;BME280;24468;52.128;9.278;2022-10-19T04:36:14;101940.41;;;9.42;100.00
38718;BME280;24468;52.128;9.278;2022-10-19T04:38:39;101954.44;;;9.05;100.00
38718;BME280;24468;52.128;9.278;2022-10-19T04:41:11;101954.22;;;9.20;100.00
38718;BME280;24468;52.128;9.278;2022-10-19T04:43:37;101950.25;;;8.87;100.00
38718;BME280;24468;52.128;9.278;2022-10-19T04:46:09;101954.66;;;8.93;100.00
38718;BME280;24468;52.128;9.278;2022-10-19T04:48:36;101960.34;;;8.73;100.00
38718;BME280;24468;52.128;9.278;2022-10-19T04:51:03;101966.75;;;8.61;100.00
38718;BME280;24468;52.128;9.278;2022-10-19T04:53:29;101960.28;;;8.74;100.00
38718;BME280;24468;52.128;9.278;2022-10-19T04:55:55;101946.34;;;9.06;100.00
38718;BME280;24468;52.128;9.278;2022-10-19T04:58:20;101960.59;;;9.16;100.00
38718;BME280;24468;52.128;9.278;2022-10-19T05:00:46;101955.25;;;8.50;100.00
38718;BME280;24468;52.128;9.278;2022-10-19T05:03:12;101967.91;;;8.41;100.00
38718;BME280;24468;52.128;9.278;2022-10-19T05:05:37;101953.81;;;8.89;100.00
38718;BME280;24468;52.128;9.278;2022-10-19T05:08:03;101955.63;;;8.85;100.00
38718;BME280;24468;52.128;9.278;2022-10-19T05:10:29;101966.41;;;8.85;100.00
38718;BME280;24468;52.128;9.278;2022-10-19T05:12:54;101963.34;;;9.10;100.00
38718;BME280;24468;52.128;9.278;2022-10-19T05:15:20;101962.34;;;9.17;100.00
38718;BME280;24468;52.128;9.278;2022-10-19T05:17:46;101966.69;;;9.26;100.00
38718;BME280;24468;52.128;9.278;2022-10-19T05:20:11;101954.75;;;9.42;100.00
38718;BME280;24468;52.128;9.278;2022-10-19T05:22:38;101957.44;;;9.42;100.00
38718;BME280;24468;52.128;9.278;2022-10-19T05:25:05;101952.94;;;9.44;100.00
38718;BME280;24468;52.128;9.278;2022-10-19T05:27:31;101959.22;;;9.43;100.00
38718;BME280;24468;52.128;9.278;2022-10-19T05:29:56;101956.28;;;9.57;100.00
38718;BME280;24468;52.128;9.278;2022-10-19T05:32:22;101949.84;;;9.66;100.00
38718;BME280;24468;52.128;9.278;2022-10-19T05:34:47;101961.44;;;9.71;100.00
38718;BME280;24468;52.128;9.278;2022-10-19T05:37:15;101955.06;;;9.75;100.00
38718;BME280;24468;52.128;9.278;2022-10-19T05:39:41;101943.34;;;9.77;100.00
38718;BME280;24468;52.128;9.278;2022-10-19T05:42:06;101943.28;;;9.82;100.00
38718;BME280;24468;52.128;9.278;2022-10-19T05:44:32;101952.38;;;9.73;100.00
38718;BME280;24468;52.128;9.278;2022-10-19T05:46:57;101955.94;;;9.75;100.00
38718;BME280;24468;52.128;9.278;2022-10-19T05:49:23;101953.19;;;9.78;100.00
38718;BME280;24468;52.128;9.278;2022-10-19T05:51:49;101946.88;;;9.81;100.00
38718;BME280;24468;52.128;9.278;2022-10-19T05:54:14;101942.34;;;9.82;100.00
38718;BME280;24468;52.128;9.278;2022-10-19T05:56:42;101951.09;;;9.96;100.00
38718;BME280;24468;52.128;9.278;2022-10-19T05:59:13;101953.75;;;9.97;100.00
38718;BME280;24468;52.128;9.278;2022-10-19T06:01:38;101948.34;;;9.97;100.00
38718;BME280;24468;52.128;9.278;2022-10-19T06:04:04;101953.88;;;9.91;100.00
38718;BME280;24468;52.128;9.278;2022-10-19T06:06:32;101951.09;;;9.96;100.00
38718;BME280;24468;52.128;9.278;2022-10-19T06:08:58;101957.25;;;9.54;100.00
38718;BME280;24468;52.128;9.278;2022-10-19T06:11:38;101966.50;;;9.38;100.00
38718;BME280;24468;52.128;9.278;2022-10-19T06:14:07;101965.41;;;9.48;100.00
38718;BME280;24468;52.128;9.278;2022-10-19T06:16:34;101964.56;;;9.46;100.00
38718;BME280;24468;52.128;9.278;2022-10-19T06:19:00;101969.53;;;9.69;100.00
38718;BME280;24468;52.128;9.278;2022-10-19T06:21:29;101960.47;;;9.73;100.00
38718;BME280;24468;52.128;9.278;2022-10-19T06:23:58;101961.59;;;9.63;100.00
38718;BME280;24468;52.128;9.278;2022-10-19T06:26:26;101954.94;;;9.83;100.00
38718;BME280;24468;52.128;9.278;2022-10-19T06:28:55;101963.81;;;9.88;100.00
38718;BME280;24468;52.128;9.278;2022-10-19T06:31:22;101974.81;;;9.23;100.00
38718;BME280;24468;52.128;9.278;2022-10-19T06:33:48;101973.72;;;9.34;100.00
38718;BME280;24468;52.128;9.278;2022-10-19T06:36:17;101965.88;;;9.73;100.00
38718;BME280;24468;52.128;9.278;2022-10-19T06:38:44;101973.94;;;9.75;100.00
38718;BME280;24468;52.128;9.278;2022-10-19T06:41:11;101971.03;;;9.86;100.00
38718;BME280;24468;52.128;9.278;2022-10-19T06:43:36;101962.69;;;9.99;100.00
38718;BME280;24468;52.128;9.278;2022-10-19T06:46:08;101959.72;;;10.13;100.00
38718;BME280;24468;52.128;9.278;2022-10-19T06:48:34;101967.06;;;10.07;100.00
38718;BME280;24468;52.128;9.278;2022-10-19T06:51:03;101960.72;;;10.09;100.00
38718;BME280;24468;52.128;9.278;2022-10-19T06:53:29;101970.81;;;9.98;100.00
38718;BME280;24468;52.128;9.278;2022-10-19T06:56:00;101974.16;;;9.63;100.00
38718;BME280;24468;52.128;9.278;2022-10-19T06:58:26;101969.69;;;10.10;100.00
38718;BME280;24468;52.128;9.278;2022-10-19T07:00:57;101959.47;;;10.29;100.00
38718;BME280;24468;52.128;9.278;2022-10-19T07:03:25;101964.66;;;10.38;100.00
38718;BME280;24468;52.128;9.278;2022-10-19T07:05:55;101971.81;;;10.39;100.00
38718;BME280;24468;52.128;9.278;2022-10-19T07:08:22;101976.56;;;9.79;100.00
38718;BME280;24468;52.128;9.278;2022-10-19T07:10:52;101975.31;;;9.97;100.00
38718;BME280;24468;52.128;9.278;2022-10-19T07:13:19;101973.94;;;10.21;100.00
38718;BME280;24468;52.128;9.278;2022-10-19T07:15:44;101971.94;;;10.33;100.00
38718;BME280;24468;52.128;9.278;2022-10-19T07:18:10;101985.88;;;10.08;100.00
38718;BME280;24468;52.128;9.278;2022-10-19T07:20:36;101983.69;;;10.32;100.00
38718;BME280;24468;52.128;9.278;2022-10-19T07:23:01;101983.97;;;10.61;100.00
38718;BME280;24468;52.128;9.278;2022-10-19T07:25:27;101991.25;;;10.56;100.00
38718;BME280;24468;52.128;9.278;2022-10-19T07:27:54;101988.31;;;10.23;100.00
38718;BME280;24468;52.128;9.278;2022-10-19T07:30:20;101987.94;;;10.42;100.00
38718;BME280;24468;52.128;9.278;2022-10-19T07:32:45;101992.88;;;10.63;100.00
38718;BME280;24468;52.128;9.278;2022-10-19T07:35:11;102001.28;;;10.92;100.00
38718;BME280;24468;52.128;9.278;2022-10-19T07:37:36;101990.63;;;10.43;100.00
38718;BME280;24468;52.128;9.278;2022-10-19T07:40:03;102004.72;;;10.58;100.00
38718;BME280;24468;52.128;9.278;2022-10-19T07:42:28;101998.84;;;10.81;100.00
38718;BME280;24468;52.128;9.278;2022-10-19T07:44:57;101994.13;;;10.49;100.00
38718;BME280;24468;52.128;9.278;2022-10-19T07:47:22;101991.78;;;10.72;100.00
38718;BME280;24468;52.128;9.278;2022-10-19T07:49:48;101992.72;;;10.71;100.00
38718;BME280;24468;52.128;9.278;2022-10-19T07:52:14;101992.81;;;10.66;100.00
38718;BME280;24468;52.128;9.278;2022-10-19T07:54:39;101998.94;;;10.75;100.00
38718;BME280;24468;52.128;9.278;2022-10-19T07:57:05;101999.44;;;10.94;100.00
38718;BME280;24468;52.128;9.278;2022-10-19T07:59:30;102003.38;;;10.79;100.00
38718;BME280;24468;52.128;9.278;2022-10-19T08:01:56;102002.75;;;11.06;100.00
38718;BME280;24468;52.128;9.278;2022-10-19T08:04:22;102004.25;;;11.20;100.00
38718;BME280;24468;52.128;9.278;2022-10-19T08:06:48;101998.31;;;11.04;100.00
38718;BME280;24468;52.128;9.278;2022-10-19T08:09:14;101994.72;;;11.02;100.00
38718;BME280;24468;52.128;9.278;2022-10-19T08:11:40;101995.72;;;11.37;100.00
38718;BME280;24468;52.128;9.278;2022-10-19T08:14:05;102004.00;;;11.29;100.00
38718;BME280;24468;52.128;9.278;2022-10-19T08:16:37;101995.72;;;11.37;100.00
38718;BME280;24468;52.128;9.278;2022-10-19T08:19:15;101995.47;;;11.47;100.00
38718;BME280;24468;52.128;9.278;2022-10-19T08:21:45;101997.72;;;11.66;100.00
38718;BME280;24468;52.128;9.278;2022-10-19T08:24:13;101989.69;;;11.61;100.00
38718;BME280;24468;52.128;9.278;2022-10-19T08:26:39;101989.44;;;11.72;100.00
38718;BME280;24468;52.128;9.278;2022-10-19T08:29:11;101996.03;;;11.96;100.00
38718;BME280;24468;52.128;9.278;2022-10-19T08:31:38;101991.09;;;11.77;100.00
38718;BME280;24468;52.128;9.278;2022-10-19T08:34:04;101995.97;;;11.97;100.00
38718;BME280;24468;52.128;9.278;2022-10-19T08:36:30;101984.97;;;12.05;100.00
38718;BME280;24468;52.128;9.278;2022-10-19T08:38:57;101985.16;;;11.97;100.00
38718;BME280;24468;52.128;9.278;2022-10-19T08:42:05;101991.25;;;12.06;100.00
38718;BME280;24468;52.128;9.278;2022-10-19T08:47:54;101976.22;;;12.58;100.00
38718;BME280;24468;52.128;9.278;2022-10-19T08:50:36;101977.63;;;12.41;100.00
38718;BME280;24468;52.128;9.278;2022-10-19T08:53:06;101984.31;;;12.28;100.00
38718;BME280;24468;52.128;9.278;2022-10-19T08:58:35;101984.59;;;12.80;100.00
38718;BME280;24468;52.128;9.278;2022-10-19T09:04:08;101984.00;;;12.70;100.00
38718;BME280;24468;52.128;9.278;2022-10-19T09:09:11;101980.56;;;13.21;100.00
38718;BME280;24468;52.128;9.278;2022-10-19T09:11:43;101986.31;;;13.12;100.00
38718;BME280;24468;52.128;9.278;2022-10-19T09:14:18;101981.44;;;12.64;100.00
38718;BME280;24468;52.128;9.278;2022-10-19T09:16:46;101978.31;;;12.78;100.00
38718;BME280;24468;52.128;9.278;2022-10-19T09:19:23;101977.44;;;13.07;100.00
38718;BME280;24468;52.128;9.278;2022-10-19T09:21:57;101984.13;;;12.95;100.00
38718;BME280;24468;52.128;9.278;2022-10-19T09:27:00;101974.75;;;13.62;100.00
38718;BME280;24468;52.128;9.278;2022-10-19T09:29:40;101973.44;;;12.90;100.00
38718;BME280;24468;52.128;9.278;2022-10-19T09:32:14;101961.59;;;13.21;100.00
38718;BME280;24468;52.128;9.278;2022-10-19T09:34:48;101968.22;;;13.67;100.00
38718;BME280;24468;52.128;9.278;2022-10-19T09:37:14;101975.06;;;13.52;100.00
38718;BME280;24468;52.128;9.278;2022-10-19T09:39:41;101969.94;;;13.70;100.00
38718;BME280;24468;52.128;9.278;2022-10-19T09:44:51;101978.13;;;13.68;100.00
38718;BME280;24468;52.128;9.278;2022-10-19T09:49:48;101972.28;;;13.81;100.00
38718;BME280;24468;52.128;9.278;2022-10-19T09:52:39;101983.03;;;13.57;100.00
38718;BME280;24468;52.128;9.278;2022-10-19T09:57:49;101978.78;;;13.50;100.00
38718;BME280;24468;52.128;9.278;2022-10-19T10:00:25;101976.34;;;13.94;100.00
38718;BME280;24468;52.128;9.278;2022-10-19T10:02:55;101974.34;;;13.99;100.00
38718;BME280;24468;52.128;9.278;2022-10-19T10:05:36;101973.19;;;14.06;100.00
38718;BME280;24468;52.128;9.278;2022-10-19T10:08:11;101966.94;;;14.29;100.00
38718;BME280;24468;52.128;9.278;2022-10-19T10:10:41;101966.53;;;14.15;100.00
38718;BME280;24468;52.128;9.278;2022-10-19T10:13:20;101957.19;;;14.23;100.00
38718;BME280;24468;52.128;9.278;2022-10-19T10:16:00;101964.97;;;14.58;100.00
38718;BME280;24468;52.128;9.278;2022-10-19T10:18:27;101964.28;;;14.51;100.00
38718;BME280;24468;52.128;9.278;2022-10-19T10:21:04;101970.16;;;14.15;100.00
38718;BME280;24468;52.128;9.278;2022-10-19T10:23:35;101962.97;;;14.63;100.00
38718;BME280;24468;52.128;9.278;2022-10-19T10:26:04;101962.50;;;14.50;100.00
38718;BME280;24468;52.128;9.278;2022-10-19T10:28:30;101955.50;;;14.19;100.00
38718;BME280;24468;52.128;9.278;2022-10-19T10:31:04;101966.75;;;14.09;100.00
38718;BME280;24468;52.128;9.278;2022-10-19T10:33:33;101953.44;;;14.51;100.00
38718;BME280;24468;52.128;9.278;2022-10-19T10:36:10;101967.31;;;14.67;100.00
38718;BME280;24468;52.128;9.278;2022-10-19T10:38:46;101965.97;;;14.30;97.40
38718;BME280;24468;52.128;9.278;2022-10-19T10:41:16;101965.25;;;14.00;100.00
38718;BME280;24468;52.128;9.278;2022-10-19T10:43:59;101966.34;;;14.44;100.00
38718;BME280;24468;52.128;9.278;2022-10-19T10:46:52;101954.25;;;14.77;100.00
38718;BME280;24468;52.128;9.278;2022-10-19T10:49:28;101952.50;;;14.52;100.00
38718;BME280;24468;52.128;9.278;2022-10-19T10:51:57;101940.44;;;14.83;100.00
38718;BME280;24468;52.128;9.278;2022-10-19T10:54:30;101952.09;;;14.86;100.00
38718;BME280;24468;52.128;9.278;2022-10-19T10:57:11;101952.47;;;15.21;100.00
38718;BME280;24468;52.128;9.278;2022-10-19T10:59:54;101942.31;;;14.81;99.30
38718;BME280;24468;52.128;9.278;2022-10-19T11:05:40;101939.59;;;14.81;97.05
38718;BME280;24468;52.128;9.278;2022-10-19T11:08:23;101938.69;;;15.04;97.87
38718;BME280;24468;52.128;9.278;2022-10-19T11:14:26;101925.81;;;15.09;100.00
38718;BME280;24468;52.128;9.278;2022-10-19T11:16:56;101925.97;;;15.26;99.88
38718;BME280;24468;52.128;9.278;2022-10-19T11:19:41;101916.63;;;14.89;98.94
38718;BME280;24468;52.128;9.278;2022-10-19T11:22:32;101923.94;;;14.65;96.68
38718;BME280;24468;52.128;9.278;2022-10-19T11:25:23;101930.59;;;14.08;100.00
38718;BME280;24468;52.128;9.278;2022-10-19T11:31:16;101922.38;;;14.35;100.00
38718;BME280;24468;52.128;9.278;2022-10-19T11:34:09;101922.50;;;14.32;100.00
38718;BME280;24468;52.128;9.278;2022-10-19T11:36:56;101922.16;;;14.64;100.00
38718;BME280;24468;52.128;9.278;2022-10-19T11:40:04;101915.63;;;14.21;100.00
38718;BME280;24468;52.128;9.278;2022-10-19T11:48:46;101892.63;;;14.55;100.00
38718;BME280;24468;52.128;9.278;2022-10-19T11:51:44;101892.75;;;14.76;98.86
38718;BME280;24468;52.128;9.278;2022-10-19T11:54:43;101882.44;;;14.84;95.41
38718;BME280;24468;52.128;9.278;2022-10-19T11:57:22;101891.63;;;14.58;97.79
38718;BME280;24468;52.128;9.278;2022-10-19T12:00:02;101887.94;;;14.59;95.58
38718;BME280;24468;52.128;9.278;2022-10-19T12:05:26;101872.84;;;14.52;94.21
38718;BME280;24468;52.128;9.278;2022-10-19T12:11:06;101875.09;;;14.17;95.62
38718;BME280;24468;52.128;9.278;2022-10-19T12:13:48;101859.19;;;14.77;96.86
38718;BME280;24468;52.128;9.278;2022-10-19T12:16:17;101863.84;;;15.17;94.41
38718;BME280;24468;52.128;9.278;2022-10-19T12:18:52;101859.44;;;14.47;95.48
38718;BME280;24468;52.128;9.278;2022-10-19T12:21:32;101850.69;;;14.39;95.93
38718;BME280;24468;52.128;9.278;2022-10-19T12:24:02;101855.09;;;13.96;95.89
38718;BME280;24468;52.128;9.278;2022-10-19T12:26:33;101861.28;;;13.99;98.65
38718;BME280;24468;52.128;9.278;2022-10-19T12:29:04;101851.84;;;14.10;98.57
38718;BME280;24468;52.128;9.278;2022-10-19T12:31:31;101848.59;;;14.00;100.00
38718;BME280;24468;52.128;9.278;2022-10-19T12:41:54;101834.38;;;13.93;100.00
38718;BME280;24468;52.128;9.278;2022-10-19T12:47:18;101843.84;;;13.82;100.00
38718;BME280;24468;52.128;9.278;2022-10-19T12:49:49;101841.69;;;14.15;100.00
38718;BME280;24468;52.128;9.278;2022-10-19T12:55:23;101826.00;;;14.68;92.31
38718;BME280;24468;52.128;9.278;2022-10-19T12:58:19;101812.28;;;14.72;89.00
38718;BME280;24468;52.128;9.278;2022-10-19T13:01:00;101812.78;;;15.03;90.96
38718;BME280;24468;52.128;9.278;2022-10-19T13:03:37;101805.16;;;14.91;90.50
38718;BME280;24468;52.128;9.278;2022-10-19T13:06:12;101798.75;;;15.14;88.67
38718;BME280;24468;52.128;9.278;2022-10-19T13:11:18;101802.50;;;14.89;92.50
38718;BME280;24468;52.128;9.278;2022-10-19T13:17:01;101781.75;;;15.50;87.59
38718;BME280;24468;52.128;9.278;2022-10-19T13:19:27;101778.00;;;15.52;88.04
38718;BME280;24468;52.128;9.278;2022-10-19T13:27:16;101762.84;;;14.63;91.66
38718;BME280;24468;52.128;9.278;2022-10-19T13:29:47;101756.47;;;15.07;92.00
38718;BME280;24468;52.128;9.278;2022-10-19T13:32:32;101750.13;;;15.27;87.15
38718;BME280;24468;52.128;9.278;2022-10-19T13:46:22;101766.44;;;15.27;88.21
38718;BME280;24468;52.128;9.278;2022-10-19T14:00:19;101755.31;;;15.33;89.03
38718;BME280;24468;52.128;9.278;2022-10-19T14:09:09;101755.09;;;15.38;88.98
38718;BME280;24468;52.128;9.278;2022-10-19T14:11:39;101744.00;;;15.42;89.06
38718;BME280;24468;52.128;9.278;2022-10-19T14:14:17;101748.47;;;15.43;87.48
38718;BME280;24468;52.128;9.278;2022-10-19T14:16:59;101748.13;;;15.11;88.39
38718;BME280;24468;52.128;9.278;2022-10-19T14:19:48;101747.44;;;15.06;90.01
38718;BME280;24468;52.128;9.278;2022-10-19T14:22:34;101735.19;;;14.96;91.07
38718;BME280;24468;52.128;9.278;2022-10-19T14:25:17;101734.50;;;14.71;91.98
38718;BME280;24468;52.128;9.278;2022-10-19T14:27:45;101741.31;;;15.01;93.20
38718;BME280;24468;52.128;9.278;2022-10-19T14:30:33;101744.63;;;15.08;93.31
38718;BME280;24468;52.128;9.278;2022-10-19T14:33:05;101735.19;;;15.17;93.59
38718;BME280;24468;52.128;9.278;2022-10-19T14:35:36;101737.34;;;15.29;91.28
38718;BME280;24468;52.128;9.278;2022-10-19T14:38:06;101741.72;;;15.12;92.69
38718;BME280;24468;52.128;9.278;2022-10-19T14:40:41;101730.97;;;15.09;92.25
38718;BME280;24468;52.128;9.278;2022-10-19T14:43:26;101727.16;;;14.93;92.90
38718;BME280;24468;52.128;9.278;2022-10-19T14:48:48;101732.66;;;14.92;94.21
38718;BME280;24468;52.128;9.278;2022-10-19T14:51:42;101736.47;;;14.87;94.01
38718;BME280;24468;52.128;9.278;2022-10-19T14:54:32;101740.94;;;14.88;97.28
38718;BME280;24468;52.128;9.278;2022-10-19T15:02:12;101736.56;;;15.06;96.71
38718;BME280;24468;52.128;9.278;2022-10-19T15:04:41;101733.97;;;15.03;94.97
38718;BME280;24468;52.128;9.278;2022-10-19T15:07:44;101721.47;;;14.99;95.28
38718;BME280;24468;52.128;9.278;2022-10-19T15:10:43;101719.38;;;15.06;96.36
38718;BME280;24468;52.128;9.278;2022-10-19T15:13:22;101716.38;;;15.12;95.37
38718;BME280;24468;52.128;9.278;2022-10-19T15:15:51;101705.91;;;15.23;96.43